Aviation Digital Data Service (ADDS)

Output produced by METARs form (0908 UTC 27 November 2014)
found at http://www.aviationweather.gov/adds/metars/
 
KCMI 270542Z 2706/2806 01009KT P6SM SCT025 OVC060 
     FM271300 30012KT P6SM OVC025 
     FM271900 31013KT P6SM SCT025 BKN100